createdAt,value
2018-07-26T00:01:58.852Z,74.51
2018-07-26T00:04:28.828Z,72.80
2018-07-26T00:06:58.858Z,76.07
2018-07-26T00:09:28.835Z,74.05
2018-07-26T00:11:58.602Z,73.16
2018-07-26T00:14:28.382Z,71.67
2018-07-26T00:16:58.212Z,72.34
2018-07-26T00:19:28.083Z,71.31
2018-07-26T00:21:57.922Z,73.65
2018-07-26T00:24:27.674Z,72.51
2018-07-26T00:26:57.614Z,71.90
2018-07-26T00:29:27.347Z,74.31
2018-07-26T00:31:57.310Z,75.00
2018-07-26T00:34:27.262Z,75.98
2018-07-26T00:36:57.069Z,74.74
2018-07-26T00:39:26.815Z,72.75
2018-07-26T00:41:56.534Z,71.16
2018-07-26T00:44:26.375Z,70.59
2018-07-26T00:46:56.288Z,70.72
2018-07-26T00:49:26.063Z,69.66
2018-07-26T00:51:55.995Z,69.89
2018-07-26T00:54:26.118Z,70.00
2018-07-26T00:56:56.015Z,70.42
2018-07-26T00:59:25.828Z,71.77
2018-07-26T01:01:55.656Z,73.54
2018-07-26T01:04:25.703Z,72.40
2018-07-26T01:06:55.605Z,74.63
2018-07-26T01:09:25.708Z,73.40
2018-07-26T01:11:55.621Z,72.08
2018-07-26T01:14:25.619Z,75.67
2018-07-26T01:16:55.576Z,78.87
2018-07-26T01:19:25.609Z,78.56
2018-07-26T01:21:55.962Z,78.17
2018-07-26T01:24:25.872Z,78.00
2018-07-26T01:26:55.935Z,76.69
2018-07-26T01:29:26.005Z,75.31
2018-07-26T01:31:56.047Z,76.45
2018-07-26T01:34:26.676Z,75.04
2018-07-26T01:36:56.677Z,74.09
2018-07-26T01:39:26.663Z,72.61
2018-07-26T01:41:56.702Z,75.26
2018-07-26T01:44:26.801Z,73.99
2018-07-26T01:46:56.845Z,75.58
2018-07-26T01:49:26.875Z,74.70
2018-07-26T01:51:56.720Z,73.96
2018-07-26T01:54:27.025Z,73.08
2018-07-26T01:56:56.984Z,71.63
2018-07-26T01:59:26.934Z,72.15
2018-07-26T02:01:57.326Z,72.15
2018-07-26T02:04:27.353Z,73.19
2018-07-26T02:06:57.339Z,71.79
2018-07-26T02:09:27.486Z,72.00
2018-07-26T02:11:57.592Z,71.69
2018-07-26T02:14:32.803Z,73.30
2018-07-26T02:17:03.080Z,72.21
2018-07-26T02:19:33.004Z,75.57
2018-07-26T02:22:03.001Z,75.71
2018-07-26T02:24:33.030Z,75.80
2018-07-26T02:27:03.052Z,77.07
2018-07-26T02:29:32.959Z,76.32
2018-07-26T02:32:02.919Z,75.45
2018-07-26T02:34:32.952Z,75.37
2018-07-26T02:37:02.865Z,78.40
2018-07-26T02:39:32.696Z,77.11
2018-07-26T02:42:02.579Z,75.48
2018-07-26T02:44:32.341Z,79.28
2018-07-26T02:47:02.250Z,78.94
2018-07-26T02:49:32.210Z,78.36
2018-07-26T02:52:02.319Z,77.44
2018-07-26T02:54:32.101Z,79.20
2018-07-26T02:57:02.122Z,76.55
2018-07-26T02:59:32.145Z,75.12
2018-07-26T03:02:02.520Z,76.63
2018-07-26T03:04:32.375Z,78.71
2018-07-26T03:07:02.704Z,78.83
2018-07-26T03:09:33.027Z,76.87
2018-07-26T03:12:02.938Z,75.43
2018-07-26T03:14:37.703Z,75.22
2018-07-26T03:17:07.584Z,76.60
2018-07-26T03:19:37.567Z,76.46
2018-07-26T03:22:07.727Z,75.76
2018-07-26T03:24:37.595Z,73.86
2018-07-26T03:27:08.660Z,74.50
2018-07-26T03:29:38.516Z,76.09
2018-07-26T03:32:09.867Z,78.19
2018-07-26T03:34:39.936Z,78.06
2018-07-26T03:37:10.053Z,77.72
2018-07-26T03:39:39.943Z,78.05
2018-07-26T03:42:09.935Z,77.34
2018-07-26T03:44:39.821Z,77.23
2018-07-26T03:47:10.025Z,76.40
2018-07-26T03:49:39.938Z,76.32
2018-07-26T03:52:09.920Z,78.42
2018-07-26T03:54:39.699Z,77.95
2018-07-26T03:57:09.846Z,77.20
2018-07-26T03:59:39.847Z,79.05
2018-07-26T04:02:10.068Z,77.63
2018-07-26T04:04:39.879Z,76.85
2018-07-26T04:07:09.819Z,76.48
2018-07-26T04:09:39.806Z,76.28
2018-07-26T04:12:09.977Z,76.13
2018-07-26T04:14:39.938Z,75.77
2018-07-26T04:17:10.087Z,75.29
2018-07-26T04:19:39.968Z,75.31
2018-07-26T04:22:09.888Z,74.75
2018-07-26T04:24:39.875Z,74.39
2018-07-26T04:27:09.984Z,74.16
2018-07-26T04:29:40.084Z,74.19
2018-07-26T04:32:10.214Z,74.12
2018-07-26T04:34:40.068Z,73.97
2018-07-26T04:37:09.907Z,75.09
2018-07-26T04:39:39.671Z,74.90
2018-07-26T04:42:09.587Z,74.73
2018-07-26T04:44:39.829Z,75.03
2018-07-26T04:47:09.900Z,76.12
2018-07-26T04:49:40.553Z,75.60
2018-07-26T04:52:10.404Z,75.75
2018-07-26T04:54:40.260Z,76.27
2018-07-26T04:57:10.187Z,76.01
2018-07-26T04:59:40.188Z,77.05
2018-07-26T05:02:10.303Z,76.91
2018-07-26T05:04:40.258Z,76.59
2018-07-26T05:07:10.428Z,77.81
2018-07-26T05:09:40.359Z,78.91
2018-07-26T05:12:10.418Z,78.09
2018-07-26T05:14:40.263Z,77.16
2018-07-26T05:17:10.438Z,76.81
2018-07-26T05:19:40.420Z,76.25
2018-07-26T05:22:10.387Z,76.57
2018-07-26T05:24:40.408Z,76.82
2018-07-26T05:27:10.500Z,77.38
2018-07-26T05:29:40.774Z,76.64
2018-07-26T05:32:10.704Z,78.75
2018-07-26T05:34:40.547Z,78.07
2018-07-26T05:37:10.484Z,76.94
2018-07-26T05:39:40.350Z,76.60
2018-07-26T05:42:10.132Z,78.50
2018-07-26T05:44:40.055Z,77.22
2018-07-26T05:47:10.092Z,75.67
2018-07-26T05:49:40.183Z,76.14
2018-07-26T05:52:10.368Z,78.25
2018-07-26T05:54:40.364Z,76.43
2018-07-26T05:57:10.259Z,75.16
2018-07-26T05:59:40.293Z,74.46
2018-07-26T06:02:10.924Z,73.01
2018-07-26T06:04:40.859Z,73.45
2018-07-26T06:07:10.730Z,72.78
2018-07-26T06:09:40.638Z,72.37
2018-07-26T06:12:11.124Z,70.42
2018-07-26T06:14:40.891Z,70.09
2018-07-26T06:17:10.885Z,70.03
2018-07-26T06:19:40.675Z,70.29
2018-07-26T06:22:10.496Z,70.64
2018-07-26T06:24:40.552Z,73.14
2018-07-26T06:27:10.651Z,71.79
2018-07-26T06:29:40.767Z,71.49
2018-07-26T06:32:10.814Z,74.19
2018-07-26T06:34:40.648Z,72.32
2018-07-26T06:37:10.598Z,71.67
2018-07-26T06:39:40.456Z,70.79
2018-07-26T06:42:10.738Z,71.14
2018-07-26T06:44:40.772Z,71.06
2018-07-26T06:47:11.391Z,70.50
2018-07-26T06:49:41.170Z,69.42
2018-07-26T06:52:11.195Z,71.52
2018-07-26T06:54:41.211Z,71.31
2018-07-26T06:57:11.167Z,70.17
2018-07-26T06:59:40.995Z,68.81
2018-07-26T07:02:10.966Z,68.19
2018-07-26T07:04:41.056Z,70.27
2018-07-26T07:07:10.985Z,68.72
2018-07-26T07:09:40.840Z,68.41
2018-07-26T07:12:10.891Z,67.70
2018-07-26T07:14:40.996Z,69.34
2018-07-26T07:17:11.237Z,68.75
2018-07-26T07:19:41.356Z,69.81
2018-07-26T07:22:11.292Z,70.13
2018-07-26T07:24:41.135Z,70.30
2018-07-26T07:27:11.017Z,68.08
2018-07-26T07:29:40.860Z,67.33
2018-07-26T07:32:10.655Z,67.95
2018-07-26T07:34:40.791Z,67.87
2018-07-26T07:37:10.692Z,67.35
2018-07-26T07:39:40.540Z,67.23
2018-07-26T07:42:10.573Z,66.54
2018-07-26T07:44:40.559Z,66.74
2018-07-26T07:47:13.444Z,65.28
2018-07-26T07:49:43.423Z,66.62
2018-07-26T07:52:19.815Z,65.65
2018-07-26T07:54:49.659Z,66.14
2018-07-26T07:57:19.536Z,66.76
2018-07-26T07:59:49.367Z,66.49
2018-07-26T08:02:19.215Z,64.89
2018-07-26T08:04:49.129Z,64.10
2018-07-26T08:07:19.047Z,63.81
2018-07-26T08:09:48.914Z,63.84
2018-07-26T08:12:18.726Z,66.19
2018-07-26T08:14:48.890Z,65.09
2018-07-26T08:17:18.771Z,66.43
2018-07-26T08:19:49.492Z,64.44
2018-07-26T08:22:19.519Z,65.26
2018-07-26T08:24:49.915Z,64.59
2018-07-26T08:27:19.835Z,62.78
2018-07-26T08:29:49.957Z,62.72
2018-07-26T08:32:19.783Z,60.94
2018-07-26T08:34:49.676Z,62.00
2018-07-26T08:37:19.567Z,62.21
2018-07-26T08:39:49.712Z,63.03
2018-07-26T08:42:19.615Z,63.71
2018-07-26T08:44:49.448Z,62.81
2018-07-26T08:47:19.414Z,61.53
2018-07-26T08:49:49.496Z,60.92
2018-07-26T08:52:19.490Z,59.13
2018-07-26T08:54:49.344Z,60.76
2018-07-26T08:57:19.188Z,61.40
2018-07-26T08:59:49.131Z,60.78
2018-07-26T09:02:19.048Z,59.62
2018-07-26T09:04:49.213Z,60.23
2018-07-26T09:07:19.257Z,61.95
2018-07-26T09:09:49.047Z,63.33
2018-07-26T09:12:18.970Z,61.39
2018-07-26T09:14:48.880Z,60.56
2018-07-26T09:17:18.935Z,60.82
2018-07-26T09:19:48.863Z,59.90
2018-07-26T09:22:18.697Z,60.18
2018-07-26T09:24:48.524Z,60.55
2018-07-26T09:27:18.384Z,59.66
2018-07-26T09:29:48.266Z,58.77
2018-07-26T09:32:18.099Z,58.76
2018-07-26T09:34:47.982Z,56.92
2018-07-26T09:37:18.006Z,57.35
2018-07-26T09:39:47.837Z,57.07
2018-07-26T09:42:17.962Z,57.14
2018-07-26T09:44:47.780Z,56.44
2018-07-26T09:47:18.043Z,56.41
2018-07-26T09:49:48.110Z,55.57
2018-07-26T09:52:17.971Z,55.49
2018-07-26T09:54:47.823Z,57.94
2018-07-26T09:57:17.780Z,56.36
2018-07-26T09:59:47.720Z,55.86
2018-07-26T10:02:17.700Z,56.69
2018-07-26T10:04:47.618Z,56.22
2018-07-26T10:07:17.524Z,56.99
2018-07-26T10:09:47.456Z,53.69
2018-07-26T10:12:17.480Z,53.17
2018-07-26T10:14:47.370Z,54.66
2018-07-26T10:17:17.262Z,55.31
2018-07-26T10:19:47.353Z,54.99
2018-07-26T10:22:17.291Z,55.28
2018-07-26T10:24:47.190Z,56.01
2018-07-26T10:27:17.071Z,56.11
2018-07-26T10:29:46.962Z,55.43
2018-07-26T10:32:17.724Z,57.12
2018-07-26T10:34:47.956Z,55.65
2018-07-26T10:37:17.929Z,57.10
2018-07-26T10:39:47.755Z,55.55
2018-07-26T10:42:17.579Z,55.22
2018-07-26T10:44:47.435Z,55.23
2018-07-26T10:47:17.211Z,52.57
2018-07-26T10:49:47.176Z,52.48
2018-07-26T10:52:17.248Z,52.21
2018-07-26T10:54:47.334Z,53.86
2018-07-26T10:57:17.276Z,54.94
2018-07-26T10:59:47.256Z,57.15
2018-07-26T11:02:17.164Z,58.72
2018-07-26T11:04:47.081Z,58.96
2018-07-26T11:07:16.987Z,59.63
2018-07-26T11:09:46.817Z,59.24
2018-07-26T11:12:16.857Z,59.73
2018-07-26T11:14:46.820Z,59.18
2018-07-26T11:17:16.401Z,59.98
2018-07-26T11:19:46.392Z,59.79
2018-07-26T11:22:16.567Z,59.51
2018-07-26T11:25:01.039Z,59.20
2018-07-26T11:27:31.023Z,57.67
2018-07-26T11:30:01.016Z,57.10
2018-07-26T11:32:30.916Z,57.83
2018-07-26T11:35:01.009Z,57.33
2018-07-26T11:37:31.023Z,57.34
2018-07-26T11:40:01.060Z,57.64
2018-07-26T11:42:31.352Z,56.56
2018-07-26T11:45:01.429Z,57.28
2018-07-26T11:47:31.322Z,55.60
2018-07-26T11:50:01.280Z,55.74
2018-07-26T11:52:31.192Z,56.10
2018-07-26T11:55:01.240Z,56.42
2018-07-26T11:57:31.268Z,56.35
2018-07-26T12:00:01.348Z,54.85
2018-07-26T12:02:31.327Z,55.40
2018-07-26T12:05:01.329Z,55.50
2018-07-26T12:07:31.258Z,54.08
2018-07-26T12:10:01.268Z,51.02
2018-07-26T12:12:31.272Z,51.01
2018-07-26T12:15:01.392Z,53.16
2018-07-26T12:17:31.454Z,55.24
2018-07-26T12:20:01.303Z,53.77
2018-07-26T12:22:31.166Z,54.17
2018-07-26T12:25:01.067Z,55.83
2018-07-26T12:27:30.882Z,56.16
2018-07-26T12:30:00.796Z,57.62
2018-07-26T12:32:30.626Z,55.95
2018-07-26T12:35:00.680Z,58.06
2018-07-26T12:37:30.585Z,57.78
2018-07-26T12:40:00.470Z,57.90
2018-07-26T12:42:30.612Z,58.66
2018-07-26T12:45:06.905Z,57.39
2018-07-26T12:47:37.019Z,57.73
2018-07-26T12:50:06.940Z,58.25
2018-07-26T12:52:36.839Z,58.13
2018-07-26T12:55:06.992Z,58.21
2018-07-26T12:57:37.120Z,58.36
2018-07-26T13:00:08.224Z,58.47
2018-07-26T13:02:38.384Z,57.62
2018-07-26T13:05:08.831Z,57.95
2018-07-26T13:07:39.119Z,57.62
2018-07-26T13:10:09.234Z,57.24
2018-07-26T13:12:39.344Z,56.05
2018-07-26T13:15:09.427Z,54.81
2018-07-26T13:17:39.409Z,55.09
2018-07-26T13:20:09.999Z,56.03
2018-07-26T13:22:39.986Z,54.35
2018-07-26T13:25:10.352Z,54.91
2018-07-26T13:27:40.515Z,55.26
2018-07-26T13:30:10.525Z,55.20
2018-07-26T13:32:40.853Z,55.65
2018-07-26T13:35:10.758Z,55.29
2018-07-26T13:37:40.783Z,54.29
2018-07-26T13:40:10.620Z,54.98
2018-07-26T13:42:40.545Z,54.77
2018-07-26T13:45:11.127Z,55.48
2018-07-26T13:47:41.200Z,54.38
2018-07-26T13:50:11.075Z,54.03
2018-07-26T13:52:41.615Z,53.26
2018-07-26T13:55:11.664Z,53.47
2018-07-26T13:57:41.765Z,54.34
2018-07-26T14:00:13.377Z,53.01
2018-07-26T14:02:43.809Z,53.92
2018-07-26T14:05:13.786Z,53.59
2018-07-26T14:07:43.982Z,54.11
2018-07-26T14:10:13.908Z,53.89
2018-07-26T14:12:44.146Z,55.40
2018-07-26T14:15:14.157Z,54.06
2018-07-26T14:17:44.088Z,54.80
2018-07-26T14:20:14.067Z,55.34
2018-07-26T14:22:44.001Z,56.88
2018-07-26T14:25:13.885Z,55.68
2018-07-26T14:27:43.778Z,56.97
2018-07-26T14:30:13.766Z,57.50
2018-07-26T14:32:43.776Z,58.36
2018-07-26T14:35:13.972Z,57.91
2018-07-26T14:37:43.943Z,59.97
2018-07-26T14:40:13.951Z,59.75
2018-07-26T14:42:43.965Z,58.00
2018-07-26T14:45:14.040Z,56.70
2018-07-26T14:47:44.037Z,57.12
2018-07-26T14:50:14.113Z,56.58
2018-07-26T14:52:44.051Z,56.17
2018-07-26T14:55:14.000Z,56.02
2018-07-26T14:57:43.992Z,55.68
2018-07-26T15:00:13.984Z,55.52
2018-07-26T15:02:44.001Z,56.14
2018-07-26T15:05:14.056Z,55.63
2018-07-26T15:07:44.242Z,55.80
2018-07-26T15:10:14.434Z,55.29
2018-07-26T15:12:44.579Z,56.00
2018-07-26T15:15:14.580Z,55.90
2018-07-26T15:17:44.440Z,56.13
2018-07-26T15:20:15.090Z,55.87
2018-07-26T15:22:44.999Z,59.66
2018-07-26T15:25:19.222Z,57.94
2018-07-26T15:27:49.248Z,58.32
2018-07-26T15:30:19.183Z,57.60
2018-07-26T15:32:49.070Z,60.95
2018-07-26T15:35:19.023Z,61.55
2018-07-26T15:37:49.683Z,59.99
2018-07-26T15:40:20.043Z,61.39
2018-07-26T15:42:50.150Z,61.46
2018-07-26T15:45:19.957Z,60.91
2018-07-26T15:47:49.773Z,61.65
2018-07-26T15:50:20.257Z,61.12
2018-07-26T15:52:50.685Z,59.75
2018-07-26T15:55:21.582Z,62.04
2018-07-26T15:57:51.481Z,62.27
2018-07-26T16:00:21.327Z,61.75
2018-07-26T16:02:51.115Z,60.89
2018-07-26T16:05:20.917Z,60.23
2018-07-26T16:07:50.821Z,59.97
2018-07-26T16:10:20.703Z,61.63
2018-07-26T16:12:50.537Z,60.35
2018-07-26T16:15:20.507Z,61.76
2018-07-26T16:17:50.455Z,60.63
2018-07-26T16:20:20.367Z,61.60
2018-07-26T16:22:50.274Z,59.86
2018-07-26T16:25:23.694Z,59.49
2018-07-26T16:27:54.394Z,61.52
2018-07-26T16:30:24.183Z,62.53
2018-07-26T16:32:54.035Z,61.16
2018-07-26T16:35:24.027Z,60.97
2018-07-26T16:37:53.825Z,60.38
2018-07-26T16:40:23.757Z,60.96
2018-07-26T16:42:53.555Z,60.19
2018-07-26T16:45:23.419Z,61.13
2018-07-26T16:47:53.216Z,61.65
2018-07-26T16:50:23.215Z,62.91
2018-07-26T16:52:53.188Z,61.63
2018-07-26T16:55:23.266Z,65.84
2018-07-26T16:57:53.480Z,64.72
2018-07-26T17:00:23.363Z,65.59
2018-07-26T17:02:53.242Z,66.57
2018-07-26T17:05:23.156Z,66.23
2018-07-26T17:07:52.940Z,65.22
2018-07-26T17:10:23.069Z,65.96
2018-07-26T17:12:53.472Z,66.65
2018-07-26T17:15:23.745Z,64.51
2018-07-26T17:17:53.715Z,64.07
2018-07-26T17:20:23.647Z,63.59
2018-07-26T17:22:54.622Z,62.49
2018-07-26T17:25:26.240Z,63.63
2018-07-26T17:27:56.831Z,63.55
2018-07-26T17:30:26.647Z,63.64
2018-07-26T17:32:56.615Z,64.42
2018-07-26T17:35:26.696Z,63.79
2018-07-26T17:37:56.695Z,61.85
2018-07-26T17:40:26.736Z,61.78
2018-07-26T17:42:56.583Z,60.82
2018-07-26T17:45:26.403Z,61.30
2018-07-26T17:47:56.467Z,61.16
2018-07-26T17:50:26.426Z,60.71
2018-07-26T17:52:56.255Z,61.79
2018-07-26T17:55:26.159Z,60.81
2018-07-26T17:57:56.175Z,62.52
2018-07-26T18:00:25.996Z,62.43
2018-07-26T18:02:55.836Z,64.56
2018-07-26T18:05:25.804Z,62.06
2018-07-26T18:07:55.662Z,64.82
2018-07-26T18:10:25.467Z,60.78
2018-07-26T18:12:55.587Z,62.71
2018-07-26T18:15:25.563Z,61.44
2018-07-26T18:17:55.584Z,60.94
2018-07-26T18:20:25.630Z,60.66
2018-07-26T18:22:55.587Z,60.86
2018-07-26T18:25:25.457Z,60.05
2018-07-26T18:27:55.448Z,60.29
2018-07-26T18:30:25.513Z,59.99
2018-07-26T18:32:55.391Z,59.19
2018-07-26T18:35:25.338Z,58.97
2018-07-26T18:37:55.474Z,60.00
2018-07-26T18:40:25.441Z,59.15
2018-07-26T18:42:55.479Z,58.33
2018-07-26T18:45:25.557Z,59.64
2018-07-26T18:47:55.763Z,58.20
2018-07-26T18:50:25.736Z,59.03
2018-07-26T18:52:55.844Z,59.30
2018-07-26T18:55:25.808Z,59.51
2018-07-26T18:57:55.693Z,59.52
2018-07-26T19:00:25.732Z,58.72
2018-07-26T19:02:55.613Z,59.65
2018-07-26T19:05:25.686Z,59.03
2018-07-26T19:07:55.765Z,59.32
2018-07-26T19:10:25.643Z,59.22
2018-07-26T19:12:55.512Z,60.74
2018-07-26T19:15:25.396Z,61.63
2018-07-26T19:17:55.509Z,61.25
2018-07-26T19:20:25.340Z,60.10
2018-07-26T19:22:55.262Z,60.65
2018-07-26T19:25:25.263Z,59.59
2018-07-26T19:27:55.410Z,62.56
2018-07-26T19:30:25.587Z,61.27
2018-07-26T19:32:55.421Z,62.25
2018-07-26T19:35:31.662Z,61.10
2018-07-26T19:38:01.701Z,62.09
2018-07-26T19:40:32.034Z,60.90
2018-07-26T19:43:01.863Z,61.49
2018-07-26T19:45:31.848Z,62.10
2018-07-26T19:48:01.788Z,61.62
2018-07-26T19:50:31.670Z,62.22
2018-07-26T19:53:01.565Z,62.93
2018-07-26T19:55:31.563Z,63.20
2018-07-26T19:58:01.793Z,63.34
2018-07-26T20:00:31.920Z,64.64
2018-07-26T20:03:01.969Z,64.63
2018-07-26T20:05:31.767Z,64.01
2018-07-26T20:08:01.792Z,64.77
2018-07-26T20:10:31.743Z,63.96
2018-07-26T20:13:01.877Z,64.83
2018-07-26T20:15:31.960Z,63.50
2018-07-26T20:18:01.919Z,62.98
2018-07-26T20:20:31.935Z,63.26
2018-07-26T20:23:01.872Z,62.99
2018-07-26T20:25:31.685Z,62.74
2018-07-26T20:28:01.809Z,61.85
2018-07-26T20:30:31.659Z,63.23
2018-07-26T20:33:01.593Z,64.48
2018-07-26T20:35:31.505Z,65.43
2018-07-26T20:38:01.375Z,64.13
2018-07-26T20:40:31.236Z,64.42
2018-07-26T20:43:01.086Z,64.09
2018-07-26T20:45:30.859Z,63.97
2018-07-26T20:48:00.874Z,64.38
2018-07-26T20:50:30.722Z,64.78
2018-07-26T20:53:00.564Z,63.49
2018-07-26T20:55:30.403Z,63.29
2018-07-26T20:58:00.183Z,62.40
2018-07-26T21:00:29.967Z,62.15
2018-07-26T21:02:59.767Z,61.95
2018-07-26T21:05:29.516Z,62.50
2018-07-26T21:07:59.291Z,61.66
2018-07-26T21:10:29.117Z,62.28
2018-07-26T21:12:58.990Z,62.06
2018-07-26T21:15:28.832Z,61.71
2018-07-26T21:17:58.734Z,62.10
2018-07-26T21:20:28.551Z,62.09
2018-07-26T21:22:58.408Z,61.53
2018-07-26T21:25:28.175Z,61.08
2018-07-26T21:27:57.959Z,60.48
2018-07-26T21:30:27.762Z,61.67
2018-07-26T21:32:57.543Z,62.37
2018-07-26T21:35:27.307Z,63.32
2018-07-26T21:37:57.628Z,61.96
2018-07-26T21:40:27.545Z,62.23
2018-07-26T21:43:00.456Z,61.33
2018-07-26T21:45:36.787Z,61.92
2018-07-26T21:48:06.883Z,62.38
2018-07-26T21:50:36.895Z,62.98
2018-07-26T21:53:07.637Z,62.38
2018-07-26T21:55:37.782Z,62.58
2018-07-26T21:58:07.719Z,62.43
2018-07-26T22:00:42.652Z,62.75
2018-07-26T22:03:13.198Z,63.03
2018-07-26T22:05:43.018Z,63.23
2018-07-26T22:08:12.835Z,63.61
2018-07-26T22:10:42.770Z,63.98
2018-07-26T22:13:12.770Z,63.85
2018-07-26T22:15:42.743Z,63.74
2018-07-26T22:18:12.585Z,65.01
2018-07-26T22:20:42.504Z,64.69
2018-07-26T22:23:12.385Z,64.42
2018-07-26T22:25:46.473Z,65.35
2018-07-26T22:28:16.802Z,64.82
2018-07-26T22:30:47.381Z,65.68
2018-07-26T22:33:17.443Z,66.88
2018-07-26T22:35:47.316Z,66.65
2018-07-26T22:38:17.556Z,66.71
2018-07-26T22:40:47.727Z,65.96
2018-07-26T22:43:17.612Z,65.35
2018-07-26T22:45:47.767Z,65.01
2018-07-26T22:48:17.878Z,64.96
2018-07-26T22:50:47.895Z,64.53
2018-07-26T22:53:17.872Z,64.22
2018-07-26T22:55:48.128Z,64.42
2018-07-26T22:58:18.121Z,64.94
2018-07-26T23:00:48.092Z,64.63
2018-07-26T23:03:17.971Z,64.47
2018-07-26T23:05:47.876Z,65.05
2018-07-26T23:08:17.901Z,64.91
2018-07-26T23:10:47.923Z,65.27
2018-07-26T23:13:17.817Z,64.95
2018-07-26T23:15:47.785Z,64.61
2018-07-26T23:18:17.725Z,65.36
2018-07-26T23:20:47.648Z,64.97
2018-07-26T23:23:17.631Z,65.29
2018-07-26T23:25:47.882Z,65.25
2018-07-26T23:28:18.502Z,64.54
2018-07-26T23:30:48.612Z,65.14
2018-07-26T23:33:18.482Z,64.51
2018-07-26T23:35:48.436Z,64.63
2018-07-26T23:38:18.362Z,64.47
2018-07-26T23:40:48.242Z,64.75
2018-07-26T23:43:18.167Z,64.29
2018-07-26T23:45:48.046Z,63.68
2018-07-26T23:48:18.296Z,63.87
2018-07-26T23:50:48.174Z,64.69
2018-07-26T23:53:18.100Z,63.69
2018-07-26T23:55:48.115Z,64.56
2018-07-26T23:58:18.143Z,63.90
